createdAt,value
2022-09-20T00:01:35.932Z,44.11
2022-09-20T00:04:05.415Z,43.04
2022-09-20T00:06:32.998Z,42.92
2022-09-20T00:09:01.393Z,43.11
2022-09-20T00:11:30.026Z,42.88
2022-09-20T00:13:57.460Z,42.86
2022-09-20T00:16:27.622Z,42.71
2022-09-20T00:18:58.089Z,43.12
2022-09-20T00:21:26.040Z,42.78
2022-09-20T00:23:53.238Z,42.46
2022-09-20T00:26:20.354Z,42.11
2022-09-20T00:28:47.600Z,42.06
2022-09-20T00:31:14.958Z,41.96
2022-09-20T00:34:00.793Z,42.06
2022-09-20T00:36:27.914Z,42.39
2022-09-20T00:38:58.664Z,42.07
2022-09-20T00:41:25.950Z,42.19
2022-09-20T00:43:53.106Z,42.27
2022-09-20T00:46:20.236Z,42.94
2022-09-20T00:48:48.598Z,43.38
2022-09-20T00:51:18.087Z,43.50
2022-09-20T00:53:46.478Z,44.08
2022-09-20T00:56:18.003Z,43.60
2022-09-20T00:58:46.760Z,43.96
2022-09-20T01:01:13.941Z,43.93
2022-09-20T01:03:42.534Z,44.08
2022-09-20T01:06:10.279Z,44.33
2022-09-20T01:08:37.423Z,44.19
2022-09-20T01:11:07.689Z,44.38
2022-09-20T01:13:34.790Z,44.30
2022-09-20T01:16:01.952Z,44.60
2022-09-20T01:18:29.157Z,44.22
2022-09-20T01:20:56.298Z,44.27
2022-09-20T01:23:26.436Z,44.19
2022-09-20T01:26:12.105Z,43.97
2022-09-20T01:28:39.545Z,43.46
2022-09-20T01:31:08.300Z,43.37
2022-09-20T01:33:47.134Z,43.53
2022-09-20T01:36:16.259Z,43.41
2022-09-20T01:38:52.063Z,43.81
2022-09-20T01:41:42.461Z,43.88
2022-09-20T01:44:15.282Z,43.51
2022-09-20T01:46:42.653Z,43.60
2022-09-20T01:49:09.753Z,44.17
2022-09-20T01:51:54.497Z,44.18
2022-09-20T01:54:37.081Z,44.33
2022-09-20T01:57:27.141Z,44.46
2022-09-20T01:59:58.388Z,44.20
2022-09-20T02:02:34.592Z,44.00
2022-09-20T02:05:04.818Z,44.22
2022-09-20T02:07:52.313Z,44.91
2022-09-20T02:10:35.346Z,44.77
2022-09-20T02:13:17.843Z,44.92
2022-09-20T02:16:05.564Z,45.09
2022-09-20T02:18:32.791Z,45.76
2022-09-20T02:21:05.338Z,45.82
2022-09-20T02:23:51.408Z,45.72
2022-09-20T02:26:18.486Z,45.64
2022-09-20T02:28:56.283Z,45.98
2022-09-20T02:31:40.282Z,46.33
2022-09-20T02:34:25.855Z,46.51
2022-09-20T02:36:52.959Z,46.70
2022-09-20T02:39:33.782Z,46.68
2022-09-20T02:42:33.371Z,46.77
2022-09-20T02:45:11.068Z,46.91
2022-09-20T02:47:44.450Z,46.83
2022-09-20T02:50:12.780Z,46.89
2022-09-20T02:52:42.619Z,46.52
2022-09-20T02:55:17.925Z,46.32
2022-09-20T02:58:00.326Z,46.40
2022-09-20T03:00:28.942Z,46.49
2022-09-20T03:03:05.070Z,46.80
2022-09-20T03:05:36.588Z,46.91
2022-09-20T03:08:16.098Z,46.90
2022-09-20T03:10:49.143Z,47.12
2022-09-20T03:13:25.194Z,47.12
2022-09-20T03:16:12.580Z,46.84
2022-09-20T03:19:01.083Z,46.97
2022-09-20T03:21:37.477Z,46.69
2022-09-20T03:24:10.706Z,46.86
2022-09-20T03:26:42.318Z,46.90
2022-09-20T03:29:19.245Z,46.80
2022-09-20T03:31:49.146Z,46.84
2022-09-20T03:34:16.270Z,46.81
2022-09-20T03:37:01.891Z,46.78
2022-09-20T03:39:33.856Z,46.08
2022-09-20T03:42:03.991Z,46.05
2022-09-20T03:44:31.110Z,45.80
2022-09-20T03:47:02.751Z,46.03
2022-09-20T03:49:32.614Z,46.16
2022-09-20T03:52:05.766Z,45.74
2022-09-20T03:54:34.906Z,45.65
2022-09-20T03:57:11.241Z,46.02
2022-09-20T03:59:44.194Z,46.22
2022-09-20T04:02:18.159Z,46.32
2022-09-20T04:04:48.459Z,46.18
2022-09-20T04:07:16.880Z,46.00
2022-09-20T04:09:47.709Z,45.91
2022-09-20T04:12:34.012Z,45.53
2022-09-20T04:15:07.168Z,45.58
2022-09-20T04:17:40.054Z,46.24
2022-09-20T04:20:11.985Z,46.38
2022-09-20T04:22:39.075Z,46.31
2022-09-20T04:25:27.746Z,46.49
2022-09-20T04:28:10.666Z,46.50
2022-09-20T04:30:43.880Z,46.79
2022-09-20T04:33:16.126Z,47.11
2022-09-20T04:36:05.019Z,47.12
2022-09-20T04:38:32.367Z,47.26
2022-09-20T04:41:02.194Z,47.43
2022-09-20T04:43:32.921Z,47.23
2022-09-20T04:46:00.171Z,47.58
2022-09-20T04:48:42.515Z,47.72
2022-09-20T04:51:18.507Z,48.06
2022-09-20T04:53:45.661Z,47.77
2022-09-20T04:56:15.607Z,47.73
2022-09-20T04:59:15.027Z,47.62
2022-09-20T05:02:03.435Z,47.78
2022-09-20T05:04:31.518Z,47.77
2022-09-20T05:07:10.367Z,48.01
2022-09-20T05:09:47.289Z,48.00
2022-09-20T05:12:17.126Z,47.82
2022-09-20T05:14:52.067Z,47.68
2022-09-20T05:17:21.973Z,47.85
2022-09-20T05:20:07.585Z,47.88
2022-09-20T05:23:03.931Z,47.75
2022-09-20T05:25:54.823Z,47.78
2022-09-20T05:28:35.845Z,47.84
2022-09-20T05:31:26.250Z,47.80
2022-09-20T05:33:53.550Z,48.00
2022-09-20T05:36:27.745Z,47.80
2022-09-20T05:39:19.061Z,47.91
2022-09-20T05:41:48.056Z,48.00
2022-09-20T05:44:15.266Z,47.84
2022-09-20T05:47:00.326Z,48.05
2022-09-20T05:49:27.437Z,48.18
2022-09-20T05:52:23.900Z,47.70
2022-09-20T05:55:03.412Z,47.96
2022-09-20T05:57:39.503Z,47.95
2022-09-20T06:00:10.436Z,48.11
2022-09-20T06:02:43.158Z,48.10
2022-09-20T06:05:17.167Z,48.08
2022-09-20T06:07:47.701Z,48.23
2022-09-20T06:10:26.129Z,48.15
2022-09-20T06:12:59.693Z,48.53
2022-09-20T06:15:44.885Z,48.49
2022-09-20T06:18:15.119Z,48.21
2022-09-20T06:20:48.541Z,48.26
2022-09-20T06:23:15.694Z,48.22
2022-09-20T06:25:44.950Z,47.57
2022-09-20T06:28:21.438Z,48.05
2022-09-20T06:30:52.336Z,48.22
2022-09-20T06:33:24.058Z,48.12
2022-09-20T06:36:25.018Z,48.10
2022-09-20T06:39:35.718Z,48.52
2022-09-20T06:42:10.191Z,48.38
2022-09-20T06:44:41.292Z,48.47
2022-09-20T06:47:11.727Z,48.52
2022-09-20T06:49:42.421Z,48.59
2022-09-20T06:52:13.942Z,48.50
2022-09-20T06:54:45.813Z,48.85
2022-09-20T06:57:14.481Z,48.70
2022-09-20T06:59:41.776Z,48.97
2022-09-20T07:02:09.000Z,48.77
2022-09-20T07:04:36.184Z,48.95
2022-09-20T07:07:08.621Z,49.17
2022-09-20T07:09:36.520Z,49.20
2022-09-20T07:12:03.701Z,49.15
2022-09-20T07:14:31.110Z,49.27
2022-09-20T07:16:58.222Z,49.42
2022-09-20T07:19:25.387Z,49.27
2022-09-20T07:21:52.509Z,49.44
2022-09-20T07:24:20.150Z,49.45
2022-09-20T07:26:56.870Z,49.42
2022-09-20T07:29:24.091Z,49.54
2022-09-20T07:31:51.268Z,49.89
2022-09-20T07:34:20.314Z,49.57
2022-09-20T07:36:47.887Z,49.57
2022-09-20T07:39:18.095Z,49.38
2022-09-20T07:41:50.763Z,49.43
2022-09-20T07:44:23.185Z,50.07
2022-09-20T07:46:54.079Z,50.26
2022-09-20T07:49:21.922Z,49.97
2022-09-20T07:51:49.413Z,50.77
2022-09-20T07:54:17.147Z,49.05
2022-09-20T07:56:47.146Z,48.72
2022-09-20T07:59:14.319Z,49.21
2022-09-20T08:01:41.859Z,49.73
2022-09-20T08:04:09.589Z,50.16
2022-09-20T08:06:37.905Z,50.82
2022-09-20T08:09:10.227Z,50.52
2022-09-20T08:11:39.589Z,50.68
2022-09-20T08:14:08.818Z,50.91
2022-09-20T08:16:39.949Z,50.83
2022-09-20T08:19:07.092Z,51.28
2022-09-20T08:21:34.573Z,51.35
2022-09-20T08:24:01.993Z,51.70
2022-09-20T08:26:29.493Z,51.59
2022-09-20T08:28:57.712Z,51.36
2022-09-20T08:31:25.668Z,51.42
2022-09-20T08:33:53.014Z,51.20
2022-09-20T08:36:22.693Z,50.84
2022-09-20T08:41:39.205Z,50.40
2022-09-20T08:44:07.857Z,48.94
2022-09-20T08:46:39.260Z,50.52
2022-09-20T08:49:10.994Z,50.48
2022-09-20T08:51:39.317Z,51.19
2022-09-20T08:54:07.211Z,50.60
2022-09-20T08:56:36.456Z,50.11
2022-09-20T08:59:03.936Z,50.14
2022-09-20T09:01:33.071Z,49.67
2022-09-20T09:04:26.183Z,49.91
2022-09-20T09:06:53.694Z,49.93
2022-09-20T09:09:23.149Z,49.94
2022-09-20T09:11:50.626Z,49.97
2022-09-20T09:14:55.006Z,49.33
2022-09-20T09:17:27.354Z,49.83
2022-09-20T09:19:55.924Z,49.54
2022-09-20T09:22:39.613Z,49.63
2022-09-20T09:25:18.794Z,49.10
2022-09-20T09:28:08.934Z,49.34
2022-09-20T09:30:39.830Z,50.12
2022-09-20T09:33:25.593Z,49.66
2022-09-20T09:35:53.428Z,49.79
2022-09-20T09:38:22.422Z,50.10
2022-09-20T09:40:50.848Z,49.86
2022-09-20T09:43:27.234Z,49.82
2022-09-20T09:45:57.401Z,49.73
2022-09-20T09:48:28.378Z,50.46
2022-09-20T09:51:15.737Z,49.86
2022-09-20T09:53:42.920Z,49.95
2022-09-20T09:56:18.085Z,50.29
2022-09-20T09:59:05.481Z,50.10
2022-09-20T10:01:44.571Z,50.18
2022-09-20T10:04:20.480Z,50.11
2022-09-20T10:06:52.394Z,49.71
2022-09-20T10:09:19.607Z,50.09
2022-09-20T10:12:02.211Z,49.67
2022-09-20T10:14:44.581Z,49.99
2022-09-20T10:17:43.840Z,49.84
2022-09-20T10:20:31.172Z,50.18
2022-09-20T10:26:13.377Z,50.58
2022-09-20T10:28:48.392Z,50.80
2022-09-20T10:31:28.859Z,50.78
2022-09-20T10:33:56.250Z,50.92
2022-09-20T10:36:32.015Z,51.00
2022-09-20T10:39:05.208Z,51.51
2022-09-20T10:41:50.782Z,51.31
2022-09-20T10:44:32.979Z,51.34
2022-09-20T10:47:17.934Z,51.22
2022-09-20T10:49:52.482Z,50.78
2022-09-20T10:52:19.611Z,51.09
2022-09-20T10:55:04.337Z,51.43
2022-09-20T10:57:47.146Z,50.94
2022-09-20T11:00:21.119Z,50.99
2022-09-20T11:03:14.318Z,51.01
2022-09-20T11:05:43.680Z,51.12
2022-09-20T11:08:14.429Z,51.80
2022-09-20T11:10:46.243Z,51.42
2022-09-20T11:13:32.224Z,51.69
2022-09-20T11:16:02.370Z,51.76
2022-09-20T11:18:33.532Z,51.54
2022-09-20T11:21:03.130Z,51.81
2022-09-20T11:23:37.462Z,51.60
2022-09-20T11:26:10.562Z,51.64
2022-09-20T11:28:39.484Z,51.47
2022-09-20T11:31:15.898Z,51.76
2022-09-20T11:33:52.253Z,52.24
2022-09-20T11:36:28.430Z,51.38
2022-09-20T11:39:01.275Z,51.25
2022-09-20T11:41:30.119Z,51.68
2022-09-20T11:44:09.658Z,51.40
2022-09-20T11:46:38.824Z,51.56
2022-09-20T11:49:09.938Z,51.32
2022-09-20T11:51:46.320Z,51.26
2022-09-20T11:54:17.411Z,52.17
2022-09-20T11:56:51.419Z,52.04
2022-09-20T11:59:25.276Z,52.23
2022-09-20T12:01:52.690Z,52.17
2022-09-20T12:04:32.803Z,52.03
2022-09-20T12:07:08.349Z,52.06
2022-09-20T12:09:37.594Z,51.37
2022-09-20T12:12:37.601Z,51.68
2022-09-20T12:15:08.536Z,51.91
2022-09-20T12:17:47.818Z,52.14
2022-09-20T12:20:42.549Z,51.97
2022-09-20T12:23:28.214Z,51.56
2022-09-20T12:26:02.768Z,51.56
2022-09-20T12:28:34.150Z,51.59
2022-09-20T12:31:20.295Z,51.77
2022-09-20T12:34:13.774Z,52.24
2022-09-20T12:36:44.253Z,52.12
2022-09-20T12:39:11.877Z,52.56
2022-09-20T12:41:51.870Z,52.45
2022-09-20T12:44:37.723Z,52.71
2022-09-20T12:47:06.382Z,52.52
2022-09-20T12:50:04.442Z,52.49
2022-09-20T12:52:52.249Z,52.60
2022-09-20T12:55:25.931Z,52.90
2022-09-20T12:57:59.062Z,52.86
2022-09-20T13:00:34.517Z,53.06
2022-09-20T13:03:02.451Z,52.88
2022-09-20T13:05:52.624Z,52.41
2022-09-20T13:08:27.197Z,52.74
2022-09-20T13:11:00.405Z,52.98
2022-09-20T13:13:27.622Z,53.55
2022-09-20T13:15:54.858Z,53.27
2022-09-20T13:18:22.209Z,53.38
2022-09-20T13:20:49.321Z,53.54
2022-09-20T13:23:18.054Z,53.79
2022-09-20T13:25:45.142Z,54.03
2022-09-20T13:28:21.172Z,53.87
2022-09-20T13:30:48.550Z,54.38
2022-09-20T13:33:17.338Z,54.00
2022-09-20T13:35:46.982Z,53.43
2022-09-20T13:38:14.757Z,53.17
2022-09-20T13:40:42.551Z,52.72
2022-09-20T13:43:24.376Z,52.43
2022-09-20T13:45:58.490Z,53.04
2022-09-20T13:48:28.996Z,53.28
2022-09-20T13:50:56.408Z,52.88
2022-09-20T13:53:40.558Z,52.47
2022-09-20T13:56:10.146Z,52.90
2022-09-20T13:58:40.064Z,53.02
2022-09-20T14:01:09.566Z,52.70
2022-09-20T14:03:36.790Z,52.87
2022-09-20T14:06:05.138Z,52.40
2022-09-20T14:08:42.509Z,52.43
2022-09-20T14:11:19.622Z,52.77
2022-09-20T14:13:54.215Z,52.61
2022-09-20T14:16:21.657Z,53.14
2022-09-20T14:18:48.817Z,53.29
2022-09-20T14:21:23.367Z,53.08
2022-09-20T14:23:54.190Z,53.44
2022-09-20T14:26:22.471Z,53.88
2022-09-20T14:28:49.619Z,54.34
2022-09-20T14:31:27.316Z,54.03
2022-09-20T14:33:55.471Z,53.63
2022-09-20T14:36:23.656Z,53.47
2022-09-20T14:38:51.843Z,53.82
2022-09-20T14:41:28.863Z,53.52
2022-09-20T14:43:56.933Z,53.17
2022-09-20T14:46:28.627Z,53.77
2022-09-20T14:48:55.729Z,53.63
2022-09-20T14:51:23.411Z,53.06
2022-09-20T14:54:05.636Z,52.59
2022-09-20T14:56:36.119Z,53.41
2022-09-20T14:59:05.440Z,52.88
2022-09-20T15:01:32.908Z,53.15
2022-09-20T15:04:05.895Z,53.90
2022-09-20T15:06:34.575Z,54.04
2022-09-20T15:09:01.859Z,53.66
2022-09-20T15:11:29.951Z,54.01
2022-09-20T15:13:59.881Z,53.26
2022-09-20T15:16:27.164Z,53.78
2022-09-20T15:18:54.926Z,53.24
2022-09-20T15:21:22.059Z,53.20
2022-09-20T15:23:49.206Z,53.00
2022-09-20T15:26:16.334Z,53.44
2022-09-20T15:28:43.543Z,53.00
2022-09-20T15:31:15.094Z,53.26
2022-09-20T15:33:42.458Z,53.22
2022-09-20T15:36:09.905Z,53.53
2022-09-20T15:38:39.901Z,53.34
2022-09-20T15:41:07.514Z,53.29
2022-09-20T15:43:34.631Z,52.94
2022-09-20T15:46:17.359Z,53.35
2022-09-20T15:48:44.582Z,53.06
2022-09-20T15:51:11.795Z,53.63
2022-09-20T15:53:41.339Z,54.42
2022-09-20T15:56:27.473Z,53.49
2022-09-20T15:58:59.012Z,53.52
2022-09-20T16:01:28.146Z,53.79
2022-09-20T16:03:55.803Z,53.62
2022-09-20T16:06:23.282Z,53.36
2022-09-20T16:08:50.418Z,53.97
2022-09-20T16:11:22.678Z,54.10
2022-09-20T16:13:59.760Z,53.15
2022-09-20T16:16:27.269Z,53.40
2022-09-20T16:19:13.110Z,53.73
2022-09-20T16:21:43.637Z,53.44
2022-09-20T16:24:12.537Z,53.14
2022-09-20T16:26:39.932Z,53.82
2022-09-20T16:29:11.559Z,54.05
2022-09-20T16:31:40.174Z,53.71
2022-09-20T16:34:14.362Z,53.90
2022-09-20T16:36:42.342Z,53.24
2022-09-20T16:39:15.570Z,53.65
2022-09-20T16:41:43.119Z,53.44
2022-09-20T16:44:10.277Z,53.45
2022-09-20T16:46:37.528Z,53.77
2022-09-20T16:49:05.232Z,53.15
2022-09-20T16:51:34.327Z,53.62
2022-09-20T16:54:01.953Z,53.97
2022-09-20T16:56:29.829Z,53.96
2022-09-20T16:58:57.092Z,54.21
2022-09-20T17:01:24.256Z,54.17
2022-09-20T17:03:51.821Z,52.81
2022-09-20T17:06:19.271Z,52.16
2022-09-20T17:08:46.832Z,52.57
2022-09-20T17:11:15.853Z,52.46
2022-09-20T17:13:47.242Z,51.37
2022-09-20T17:16:15.149Z,51.44
2022-09-20T17:18:43.224Z,51.45
2022-09-20T17:21:13.222Z,51.09
2022-09-20T17:23:41.233Z,51.37
2022-09-20T17:26:09.070Z,51.35
2022-09-20T17:28:37.225Z,51.12
2022-09-20T17:31:04.763Z,51.35
2022-09-20T17:33:35.307Z,51.40
2022-09-20T17:36:03.710Z,51.27
2022-09-20T17:38:31.307Z,51.30
2022-09-20T17:41:02.182Z,50.60
2022-09-20T17:43:29.968Z,50.87
2022-09-20T17:46:06.526Z,50.80
2022-09-20T17:48:36.754Z,50.95
2022-09-20T17:51:04.087Z,51.29
2022-09-20T17:53:33.294Z,51.21
2022-09-20T17:56:00.691Z,51.40
2022-09-20T17:58:27.865Z,51.69
2022-09-20T18:01:27.437Z,51.53
2022-09-20T18:03:56.212Z,51.30
2022-09-20T18:06:25.012Z,51.08
2022-09-20T18:08:55.891Z,51.11
2022-09-20T18:11:25.033Z,51.45
2022-09-20T18:13:52.143Z,51.45
2022-09-20T18:16:19.406Z,51.55
2022-09-20T18:18:46.775Z,51.53
2022-09-20T18:21:14.635Z,51.30
2022-09-20T18:23:42.245Z,51.61
2022-09-20T18:26:24.878Z,51.38
2022-09-20T18:28:52.824Z,51.42
2022-09-20T18:31:20.016Z,50.95
2022-09-20T18:33:47.224Z,51.14
2022-09-20T18:36:18.394Z,51.18
2022-09-20T18:38:49.556Z,50.82
2022-09-20T18:41:16.680Z,51.02
2022-09-20T18:43:44.099Z,50.98
2022-09-20T18:46:11.831Z,51.39
2022-09-20T18:48:39.854Z,51.14
2022-09-20T18:51:07.422Z,51.29
2022-09-20T18:53:35.669Z,51.34
2022-09-20T18:56:12.972Z,51.25
2022-09-20T18:58:40.449Z,51.32
2022-09-20T19:01:27.892Z,51.27
2022-09-20T19:03:55.038Z,51.66
2022-09-20T19:06:22.656Z,51.30
2022-09-20T19:08:55.494Z,51.45
2022-09-20T19:11:42.862Z,51.52
2022-09-20T19:14:16.224Z,51.54
2022-09-20T19:16:43.718Z,51.38
2022-09-20T19:19:29.674Z,51.45
2022-09-20T19:22:15.263Z,51.45
2022-09-20T19:24:42.373Z,51.86
2022-09-20T19:27:12.755Z,51.42
2022-09-20T19:29:40.064Z,51.54
2022-09-20T19:32:09.798Z,51.49
2022-09-20T19:34:36.898Z,51.77
2022-09-20T19:37:10.074Z,51.51
2022-09-20T19:39:37.255Z,51.39
2022-09-20T19:42:20.015Z,51.16
2022-09-20T19:44:53.854Z,51.13
2022-09-20T19:47:27.677Z,51.50
2022-09-20T19:50:10.118Z,51.81
2022-09-20T19:52:39.418Z,51.33
2022-09-20T19:55:06.738Z,51.41
2022-09-20T19:57:39.875Z,51.36
2022-09-20T20:00:15.314Z,51.61
2022-09-20T20:02:43.635Z,51.73
2022-09-20T20:05:14.346Z,51.34
2022-09-20T20:07:45.632Z,51.59
2022-09-20T20:10:19.103Z,51.48
2022-09-20T20:12:50.066Z,51.69
2022-09-20T20:15:21.308Z,51.51
2022-09-20T20:18:02.669Z,51.36
2022-09-20T20:20:30.026Z,51.71
2022-09-20T20:23:00.923Z,51.59
2022-09-20T20:25:47.448Z,51.71
2022-09-20T20:28:14.645Z,51.49
2022-09-20T20:30:41.866Z,51.45
2022-09-20T20:33:13.596Z,51.53
2022-09-20T20:35:41.433Z,51.46
2022-09-20T20:38:10.532Z,51.41
2022-09-20T20:40:40.926Z,51.31
2022-09-20T20:43:09.345Z,51.35
2022-09-20T20:45:38.375Z,51.55
2022-09-20T20:48:06.156Z,51.25
2022-09-20T20:50:33.890Z,51.05
2022-09-20T20:53:03.586Z,51.31
2022-09-20T20:55:33.719Z,51.34
2022-09-20T20:58:01.190Z,51.40
2022-09-20T21:00:28.430Z,51.14
2022-09-20T21:02:58.935Z,51.08
2022-09-20T21:05:28.072Z,51.21
2022-09-20T21:07:55.262Z,51.29
2022-09-20T21:10:22.412Z,51.14
2022-09-20T21:12:53.155Z,51.04
2022-09-20T21:15:21.415Z,51.08
2022-09-20T21:17:52.203Z,51.11
2022-09-20T21:20:19.512Z,51.07
2022-09-20T21:22:47.769Z,51.07
2022-09-20T21:25:14.946Z,51.05
2022-09-20T21:27:42.150Z,51.27
2022-09-20T21:30:09.470Z,50.97
2022-09-20T21:32:36.684Z,50.92
2022-09-20T21:35:03.874Z,51.01
2022-09-20T21:37:31.005Z,50.76
2022-09-20T21:40:00.865Z,50.78
2022-09-20T21:42:28.805Z,50.73
2022-09-20T21:44:56.871Z,50.65
2022-09-20T21:47:23.954Z,50.63
2022-09-20T21:49:51.051Z,50.56
2022-09-20T21:52:18.167Z,50.80
2022-09-20T21:54:46.381Z,50.69
2022-09-20T21:57:13.776Z,50.59
2022-09-20T21:59:41.601Z,50.94
2022-09-20T22:02:09.119Z,50.69
2022-09-20T22:04:36.284Z,50.89
2022-09-20T22:07:04.141Z,50.69
2022-09-20T22:09:31.275Z,50.62
2022-09-20T22:11:58.382Z,50.58
2022-09-20T22:14:26.747Z,50.49
2022-09-20T22:16:53.914Z,50.85
2022-09-20T22:19:21.069Z,50.87
2022-09-20T22:21:48.630Z,50.56
2022-09-20T22:24:15.799Z,50.52
2022-09-20T22:26:43.748Z,50.51
2022-09-20T22:29:10.903Z,50.70
2022-09-20T22:31:39.033Z,50.46
2022-09-20T22:34:25.274Z,50.63
2022-09-20T22:36:52.521Z,50.90
2022-09-20T22:39:19.663Z,51.04
2022-09-20T22:41:48.018Z,50.64
2022-09-20T22:44:15.372Z,50.94
2022-09-20T22:46:42.550Z,50.77
2022-09-20T22:49:09.818Z,51.01
2022-09-20T22:51:37.425Z,50.95
2022-09-20T22:54:05.507Z,50.94
2022-09-20T22:56:34.522Z,50.98
2022-09-20T22:59:09.095Z,50.92
2022-09-20T23:01:41.202Z,50.78
2022-09-20T23:04:09.475Z,51.00
2022-09-20T23:06:37.663Z,50.73
2022-09-20T23:09:05.864Z,50.62
2022-09-20T23:11:33.071Z,50.89
2022-09-20T23:14:00.821Z,51.09
2022-09-20T23:16:28.663Z,50.97
2022-09-20T23:18:56.100Z,50.96
2022-09-20T23:21:23.234Z,50.99
2022-09-20T23:23:57.106Z,51.02
2022-09-20T23:26:25.433Z,51.40
2022-09-20T23:28:53.506Z,51.02
2022-09-20T23:31:20.635Z,51.24
2022-09-20T23:33:51.548Z,51.14
2022-09-20T23:36:18.724Z,51.53
2022-09-20T23:38:45.813Z,51.45
2022-09-20T23:41:13.515Z,51.29
2022-09-20T23:43:40.663Z,51.49
2022-09-20T23:46:08.740Z,51.10
2022-09-20T23:48:38.995Z,51.50
2022-09-20T23:51:06.220Z,51.21
2022-09-20T23:53:36.230Z,51.22
2022-09-20T23:56:03.626Z,51.11
2022-09-20T23:58:30.738Z,51.29
